TimeEST,TemperatureF,Dew PointF,Humidity,Sea Level PressureIn,VisibilityMPH,Wind Direction,Wind SpeedMPH,Gust SpeedMPH,PrecipitationIn,Events,Conditions,WindDirDegrees,DateUTC
12:53 AM,71.1,66.0,84,30.08,10.0,NNE,11.5,-,N/A,,Overcast,30,2012-12-14 05:53:00
1:53 AM,70.0,66.0,87,30.09,10.0,NNE,10.4,-,N/A,,Mostly Cloudy,20,2012-12-14 06:53:00
2:53 AM,70.0,66.0,87,30.07,10.0,NNE,11.5,-,N/A,,Overcast,20,2012-12-14 07:53:00
3:53 AM,70.0,66.0,87,30.06,10.0,NNE,12.7,-,N/A,,Overcast,20,2012-12-14 08:53:00
4:53 AM,69.1,66.0,90,30.07,10.0,North,13.8,-,N/A,,Overcast,10,2012-12-14 09:53:00
5:53 AM,69.1,66.0,90,30.08,10.0,North,12.7,19.6,N/A,,Overcast,360,2012-12-14 10:53:00
6:53 AM,68.0,66.0,93,30.10,10.0,North,10.4,19.6,N/A,,Overcast,360,2012-12-14 11:53:00
7:53 AM,68.0,64.9,90,30.11,9.0,North,10.4,-,N/A,,Overcast,10,2012-12-14 12:53:00
8:53 AM,69.1,66.0,90,30.13,10.0,NNE,9.2,-,N/A,,Overcast,20,2012-12-14 13:53:00
9:37 AM,69.8,66.2,88,30.12,10.0,North,11.5,-,N/A,,Overcast,10,2012-12-14 14:37:00
9:53 AM,71.1,66.0,84,30.13,10.0,North,10.4,18.4,N/A,,Overcast,10,2012-12-14 14:53:00
10:53 AM,72.0,66.0,81,30.13,10.0,North,12.7,-,N/A,,Overcast,10,2012-12-14 15:53:00
11:53 AM,72.0,66.0,81,30.12,10.0,North,12.7,-,N/A,,Overcast,10,2012-12-14 16:53:00
12:53 PM,73.0,66.9,81,30.09,10.0,North,13.8,-,N/A,,Overcast,360,2012-12-14 17:53:00
1:53 PM,73.4,68.0,83,30.08,10.0,North,10.4,-,N/A,,Overcast,10,2012-12-14 18:53:00
2:01 PM,73.4,66.2,78,30.07,10.0,NNE,12.7,18.4,N/A,,Mostly Cloudy,20,2012-12-14 19:01:00
2:12 PM,73.4,66.2,78,30.07,10.0,North,11.5,-,N/A,,Mostly Cloudy,360,2012-12-14 19:12:00
2:53 PM,73.0,66.9,81,30.06,10.0,North,11.5,-,N/A,,Mostly Cloudy,10,2012-12-14 19:53:00
3:32 PM,73.4,66.2,78,30.04,10.0,NNE,9.2,-,N/A,,Scattered Clouds,20,2012-12-14 20:32:00
3:53 PM,73.0,68.0,84,30.05,10.0,NNE,10.4,-,N/A,,Partly Cloudy,20,2012-12-14 20:53:00
4:53 PM,73.0,68.0,84,30.05,10.0,North,10.4,-,N/A,,Mostly Cloudy,10,2012-12-14 21:53:00
5:53 PM,72.0,68.0,87,30.06,10.0,North,8.1,-,N/A,,Mostly Cloudy,360,2012-12-14 22:53:00
6:53 PM,72.0,68.0,87,30.06,10.0,North,4.6,-,N/A,,Clear,10,2012-12-14 23:53:00
7:53 PM,73.9,64.9,73,30.08,10.0,ENE,11.5,19.6,N/A,,Clear,60,2012-12-15 00:53:00
8:53 PM,73.0,64.0,73,30.09,10.0,NE,9.2,-,N/A,,Clear,50,2012-12-15 01:53:00
9:53 PM,73.0,64.9,76,30.09,10.0,NE,9.2,-,N/A,,Clear,50,2012-12-15 02:53:00
10:53 PM,73.0,64.9,76,30.08,10.0,ENE,8.1,-,N/A,,Clear,60,2012-12-15 03:53:00
11:53 PM,73.0,64.9,76,30.06,10.0,ENE,9.2,-,N/A,,Clear,60,2012-12-15 04:53:00